Search for airport 
image banner adimage banner adimage banner ad
image banner ad

CL10 - Anacapa View Estates

Located in Malibu, United States

ICAO - CL10, IATA -

Data provided by Airmate  

General information

Coordinates: N34°2'32" W118°51'12"
Elevation is 625 feet MSL.
Magnetic variation is 14° East
View others Airports in California

Operational data

Special qualification required
Current time UTC:
Current local time:
METAR: KNTD 240838Z AUTO 00000KT 10SM FEW011 16/13 A3000 RMK AO2 T01560128 PWINO VISNO N $
TAF: TAF KNTD 2407/2507 VRB06KT 9999 SCT015 QNH2997INS BECMG 2407/2409 BKN012 QNH2998INS TEMPO 2409/2415 BKN009 FM241500 26009KT 9999 BKN012 QNH3003INS TEMPO 2415/2418 BKN009 FM241800 26009KT 9999 SCT015 QNH2997INS FM250300 VRB06KT 9999 BKN012 QNH2998INS AUTOMATED SENSOR METWATCH 2407 TIL 2413 T14/2412Z T21/2422Z FS30178
View NOTAMs / SUP AIP / TFR affecting this airport [VIEW]
Communications frequencies: [VIEW]

Runways:

Airport contact information

Address: Malibu United States

Satellite view of CL10